createdAt,value
2023-01-19T00:01:44.200Z,2.10
2023-01-19T00:04:12.100Z,2.20
2023-01-19T00:06:39.788Z,2.10
2023-01-19T00:09:07.445Z,2.45
2023-01-19T00:11:35.400Z,2.88
2023-01-19T00:14:03.530Z,2.63
2023-01-19T00:16:31.447Z,2.65
2023-01-19T00:18:59.265Z,3.53
2023-01-19T00:21:27.236Z,2.33
2023-01-19T00:23:55.060Z,2.28
2023-01-19T00:26:22.804Z,2.30
2023-01-19T00:28:50.891Z,2.72
2023-01-19T00:31:20.844Z,2.17
2023-01-19T00:33:49.640Z,1.75
2023-01-19T00:36:17.681Z,1.40
2023-01-19T00:38:45.335Z,1.92
2023-01-19T00:41:13.241Z,1.73
2023-01-19T00:43:41.055Z,2.28
2023-01-19T00:46:09.005Z,1.90
2023-01-19T00:48:37.076Z,2.60
2023-01-19T00:51:05.168Z,2.20
2023-01-19T00:53:33.060Z,1.65
2023-01-19T00:56:00.829Z,2.45
2023-01-19T00:58:28.673Z,1.30
2023-01-19T01:01:03.824Z,1.58
2023-01-19T01:03:32.833Z,1.63
2023-01-19T01:06:00.951Z,1.40
2023-01-19T01:08:28.784Z,1.20
2023-01-19T01:10:57.341Z,1.20
2023-01-19T01:13:27.492Z,1.55
2023-01-19T01:15:59.769Z,1.70
2023-01-19T01:18:29.186Z,1.02
2023-01-19T01:21:07.796Z,1.15
2023-01-19T01:23:36.028Z,1.25
2023-01-19T01:26:03.856Z,1.25
2023-01-19T01:28:32.466Z,1.30
2023-01-19T01:31:03.400Z,1.50
2023-01-19T01:33:39.813Z,1.02
2023-01-19T01:36:11.841Z,1.25
2023-01-19T01:38:41.136Z,1.60
2023-01-19T01:41:09.814Z,1.50
2023-01-19T01:43:50.624Z,1.30
2023-01-19T01:46:20.143Z,1.25
2023-01-19T01:49:11.405Z,1.63
2023-01-19T01:51:54.321Z,1.00
2023-01-19T01:54:28.403Z,0.80
2023-01-19T01:57:03.308Z,0.80
2023-01-19T01:59:39.361Z,1.10
2023-01-19T02:02:30.395Z,1.05
2023-01-19T02:05:05.355Z,1.10
2023-01-19T02:08:28.686Z,0.85
2023-01-19T02:11:15.433Z,2.17
2023-01-19T02:13:45.530Z,1.05
2023-01-19T02:16:15.170Z,0.57
2023-01-19T02:18:43.719Z,0.50
2023-01-19T02:21:22.869Z,1.05
2023-01-19T02:23:53.213Z,0.70
2023-01-19T02:26:28.490Z,0.55
2023-01-19T02:29:02.620Z,0.73
2023-01-19T02:31:32.327Z,1.70
2023-01-19T02:34:01.945Z,1.42
2023-01-19T02:36:36.477Z,0.60
2023-01-19T02:39:06.105Z,0.63
2023-01-19T02:41:40.430Z,0.98
2023-01-19T02:44:11.458Z,1.10
2023-01-19T02:46:41.433Z,0.57
2023-01-19T02:49:09.540Z,0.75
2023-01-19T02:51:37.637Z,0.90
2023-01-19T02:54:05.352Z,1.27
2023-01-19T02:56:40.438Z,0.82
2023-01-19T02:59:50.462Z,0.40
2023-01-19T03:02:41.619Z,0.65
2023-01-19T03:05:29.778Z,0.57
2023-01-19T03:08:20.697Z,0.30
2023-01-19T03:11:03.066Z,0.73
2023-01-19T03:13:40.156Z,1.90
2023-01-19T03:16:17.176Z,0.68
2023-01-19T03:18:49.981Z,0.85
2023-01-19T03:21:21.155Z,0.50
2023-01-19T03:23:51.552Z,0.85
2023-01-19T03:26:25.160Z,0.63
2023-01-19T03:28:53.381Z,0.70
2023-01-19T03:31:24.833Z,0.70
2023-01-19T03:33:57.931Z,0.63
2023-01-19T03:36:31.895Z,0.88
2023-01-19T03:39:02.383Z,0.20
2023-01-19T03:41:32.664Z,0.80
2023-01-19T03:44:01.168Z,0.73
2023-01-19T03:46:30.606Z,0.55
2023-01-19T03:49:00.220Z,1.00
2023-01-19T03:51:28.433Z,0.73
2023-01-19T03:53:56.249Z,0.55
2023-01-19T03:56:26.228Z,0.57
2023-01-19T03:58:56.153Z,0.52
2023-01-19T04:01:25.129Z,1.85
2023-01-19T04:03:53.906Z,2.15
2023-01-19T04:06:22.303Z,1.65
2023-01-19T04:08:51.476Z,0.30
2023-01-19T04:11:19.321Z,0.52
2023-01-19T04:13:47.197Z,1.10
2023-01-19T04:16:20.166Z,1.27
2023-01-19T04:18:48.847Z,0.30
2023-01-19T04:21:17.518Z,0.30
2023-01-19T04:23:46.138Z,0.30
2023-01-19T04:26:14.845Z,0.90
2023-01-19T04:28:42.990Z,0.60
2023-01-19T04:31:10.923Z,1.02
2023-01-19T04:33:38.666Z,0.35
2023-01-19T04:36:06.550Z,0.60
2023-01-19T04:38:34.254Z,0.60
2023-01-19T04:41:02.040Z,0.82
2023-01-19T04:43:30.066Z,0.57
2023-01-19T04:45:57.990Z,0.47
2023-01-19T04:48:25.863Z,0.65
2023-01-19T04:50:54.239Z,0.80
2023-01-19T04:53:22.027Z,0.80
2023-01-19T04:55:55.796Z,1.23
2023-01-19T04:58:23.861Z,0.20
2023-01-19T05:00:53.326Z,0.68
2023-01-19T05:03:26.707Z,0.10
2023-01-19T05:05:54.733Z,1.45
2023-01-19T05:08:22.783Z,0.38
2023-01-19T05:10:50.790Z,0.32
2023-01-19T05:13:19.812Z,1.38
2023-01-19T05:15:47.594Z,1.17
2023-01-19T05:18:16.635Z,0.80
2023-01-19T05:20:44.428Z,0.22
2023-01-19T05:23:12.461Z,4.38
2023-01-19T05:25:40.257Z,8.15
2023-01-19T05:28:08.102Z,3.22
2023-01-19T05:30:36.219Z,2.15
2023-01-19T05:33:05.591Z,3.38
2023-01-19T05:35:36.499Z,1.48
2023-01-19T05:38:06.343Z,0.22
2023-01-19T05:40:34.982Z,1.60
2023-01-19T05:43:05.525Z,1.02
2023-01-19T05:45:34.466Z,0.82
2023-01-19T05:48:02.458Z,0.82
2023-01-19T05:50:30.350Z,2.55
2023-01-19T05:52:59.255Z,0.75
2023-01-19T05:55:27.964Z,1.77
2023-01-19T05:57:56.677Z,3.55
2023-01-19T06:00:25.178Z,1.30
2023-01-19T06:02:53.298Z,1.40
2023-01-19T06:05:21.530Z,1.20
2023-01-19T06:07:49.204Z,0.77
2023-01-19T06:10:17.695Z,1.33
2023-01-19T06:12:46.130Z,1.67
2023-01-19T06:15:15.079Z,4.75
2023-01-19T06:17:43.258Z,2.63
2023-01-19T06:20:17.214Z,1.35
2023-01-19T06:22:45.006Z,32.83
2023-01-19T06:25:13.153Z,22.73
2023-01-19T06:27:45.424Z,19.75
2023-01-19T06:30:13.967Z,13.52
2023-01-19T06:32:41.770Z,8.63
2023-01-19T06:35:09.727Z,6.80
2023-01-19T06:37:37.491Z,2.63
2023-01-19T06:40:06.292Z,2.40
2023-01-19T06:42:34.560Z,1.85
2023-01-19T06:45:04.269Z,4.00
2023-01-19T06:47:33.976Z,2.05
2023-01-19T06:50:02.603Z,3.35
2023-01-19T06:52:30.362Z,3.20
2023-01-19T06:54:58.916Z,2.38
2023-01-19T06:57:26.794Z,3.42
2023-01-19T06:59:54.635Z,2.75
2023-01-19T07:02:26.411Z,4.35
2023-01-19T07:04:55.106Z,2.33
2023-01-19T07:07:22.942Z,3.20
2023-01-19T07:09:53.867Z,3.33
2023-01-19T07:12:23.043Z,1.85
2023-01-19T07:14:50.976Z,2.90
2023-01-19T07:17:19.857Z,1.35
2023-01-19T07:19:47.620Z,1.70
2023-01-19T07:22:15.468Z,2.13
2023-01-19T07:24:43.113Z,1.80
2023-01-19T07:27:11.971Z,1.50
2023-01-19T07:29:40.359Z,1.73
2023-01-19T07:32:08.886Z,2.15
2023-01-19T07:34:37.166Z,1.10
2023-01-19T07:37:06.370Z,1.00
2023-01-19T07:39:36.774Z,1.67
2023-01-19T07:42:04.899Z,8.85
2023-01-19T07:44:32.883Z,2.63
2023-01-19T07:47:00.891Z,2.58
2023-01-19T07:49:28.932Z,2.88
2023-01-19T07:51:56.644Z,3.13
2023-01-19T07:54:24.682Z,3.53
2023-01-19T07:56:55.498Z,1.55
2023-01-19T07:59:23.717Z,1.17
2023-01-19T08:01:52.519Z,1.35
2023-01-19T08:04:21.050Z,1.98
2023-01-19T08:06:49.174Z,1.58
2023-01-19T08:09:18.205Z,2.75
2023-01-19T08:11:46.986Z,1.50
2023-01-19T08:14:14.767Z,2.28
2023-01-19T08:16:42.598Z,3.10
2023-01-19T08:19:10.388Z,1.75
2023-01-19T08:21:39.065Z,1.15
2023-01-19T08:24:18.268Z,1.30
2023-01-19T08:26:46.087Z,2.33
2023-01-19T08:29:15.252Z,5.20
2023-01-19T08:31:44.193Z,1.98
2023-01-19T08:34:12.225Z,4.72
2023-01-19T08:36:39.922Z,5.45
2023-01-19T08:39:07.737Z,2.03
2023-01-19T08:41:36.276Z,3.25
2023-01-19T08:44:04.281Z,1.92
2023-01-19T08:46:32.796Z,3.38
2023-01-19T08:49:02.309Z,2.40
2023-01-19T08:51:30.248Z,3.20
2023-01-19T08:53:57.893Z,3.80
2023-01-19T08:56:25.777Z,3.95
2023-01-19T08:59:07.676Z,5.53
2023-01-19T09:01:37.524Z,3.70
2023-01-19T09:04:05.605Z,2.50
2023-01-19T09:06:34.377Z,2.63
2023-01-19T09:09:02.331Z,2.03
2023-01-19T09:11:30.890Z,4.95
2023-01-19T09:13:59.160Z,3.17
2023-01-19T09:16:27.488Z,2.15
2023-01-19T09:18:56.391Z,2.15
2023-01-19T09:21:24.273Z,3.47
2023-01-19T09:23:52.506Z,2.80
2023-01-19T09:26:22.343Z,4.10
2023-01-19T09:28:50.186Z,4.28
2023-01-19T09:31:18.350Z,4.13
2023-01-19T09:33:46.532Z,4.07
2023-01-19T09:36:14.569Z,2.92
2023-01-19T09:38:42.722Z,4.28
2023-01-19T09:41:21.269Z,2.13
2023-01-19T09:43:56.722Z,2.13
2023-01-19T09:46:31.245Z,2.65
2023-01-19T09:49:05.203Z,3.05
2023-01-19T09:51:39.569Z,5.95
2023-01-19T09:54:25.876Z,6.55
2023-01-19T09:56:54.544Z,5.03
2023-01-19T09:59:30.631Z,8.43
2023-01-19T10:02:04.587Z,9.40
2023-01-19T10:05:02.600Z,6.00
2023-01-19T10:07:38.759Z,7.68
2023-01-19T10:10:26.722Z,5.40
2023-01-19T10:13:11.644Z,8.10
2023-01-19T10:15:46.089Z,3.72
2023-01-19T10:18:35.990Z,5.53
2023-01-19T10:21:12.053Z,7.05
2023-01-19T10:24:12.318Z,6.05
2023-01-19T10:26:52.630Z,9.60
2023-01-19T10:29:26.363Z,9.02
2023-01-19T10:32:08.265Z,10.20
2023-01-19T10:34:36.267Z,10.85
2023-01-19T10:37:38.060Z,6.40
2023-01-19T10:40:12.077Z,9.57
2023-01-19T10:42:41.909Z,8.60
2023-01-19T10:45:20.091Z,8.38
2023-01-19T10:47:49.509Z,4.22
2023-01-19T10:50:45.161Z,3.88
2023-01-19T10:53:23.043Z,3.92
2023-01-19T10:56:22.515Z,7.22
2023-01-19T10:58:50.643Z,5.30
2023-01-19T11:01:19.980Z,6.07
2023-01-19T11:03:48.414Z,4.25
2023-01-19T11:06:16.148Z,3.20
2023-01-19T11:08:45.763Z,4.85
2023-01-19T11:11:14.355Z,4.47
2023-01-19T11:13:43.901Z,6.40
2023-01-19T11:16:17.848Z,11.00
2023-01-19T11:18:47.419Z,11.93
2023-01-19T11:21:17.427Z,11.95
2023-01-19T11:23:51.494Z,7.78
2023-01-19T11:26:48.077Z,10.10
2023-01-19T11:29:22.035Z,16.15
2023-01-19T11:31:51.194Z,58.20
2023-01-19T11:34:33.234Z,44.65
2023-01-19T11:37:22.113Z,47.28
2023-01-19T11:39:52.744Z,38.00
2023-01-19T11:42:21.847Z,34.83
2023-01-19T11:45:15.151Z,26.90
2023-01-19T11:47:44.506Z,69.45
2023-01-19T11:50:25.884Z,68.97
2023-01-19T11:53:06.001Z,45.20
2023-01-19T11:55:44.040Z,33.35
2023-01-19T11:58:16.540Z,40.28
2023-01-19T12:00:54.295Z,28.92
2023-01-19T12:03:38.022Z,27.00
2023-01-19T12:06:20.320Z,23.58
2023-01-19T12:09:06.540Z,18.17
2023-01-19T12:11:46.812Z,12.57
2023-01-19T12:14:26.963Z,17.67
2023-01-19T12:16:58.375Z,13.48
2023-01-19T12:19:39.684Z,11.75
2023-01-19T12:22:15.121Z,11.95
2023-01-19T12:24:52.844Z,9.50
2023-01-19T12:27:46.725Z,6.20
2023-01-19T12:30:20.705Z,8.85
2023-01-19T12:32:48.971Z,10.43
2023-01-19T12:35:54.033Z,15.10
2023-01-19T12:38:39.600Z,12.07
2023-01-19T12:41:21.991Z,11.15
2023-01-19T12:44:12.536Z,9.70
2023-01-19T12:47:08.619Z,8.88
2023-01-19T12:50:15.842Z,3.97
2023-01-19T12:52:51.778Z,6.97
2023-01-19T12:55:24.573Z,7.72
2023-01-19T12:58:01.393Z,8.88
2023-01-19T13:00:33.742Z,6.80
2023-01-19T13:03:20.064Z,8.88
2023-01-19T13:05:48.969Z,7.30
2023-01-19T13:08:19.697Z,4.55
2023-01-19T13:11:00.071Z,6.15
2023-01-19T13:13:37.244Z,10.02
2023-01-19T13:16:20.825Z,12.48
2023-01-19T13:18:59.756Z,16.52
2023-01-19T13:21:45.123Z,10.10
2023-01-19T13:24:15.931Z,10.57
2023-01-19T13:26:55.741Z,18.30
2023-01-19T13:29:35.279Z,7.70
2023-01-19T13:32:17.884Z,6.50
2023-01-19T13:34:52.177Z,13.10
2023-01-19T13:37:27.543Z,5.63
2023-01-19T13:39:57.105Z,7.03
2023-01-19T13:42:37.872Z,7.15
2023-01-19T13:45:34.565Z,5.15
2023-01-19T13:48:06.614Z,6.18
2023-01-19T13:50:39.327Z,9.35
2023-01-19T13:53:19.314Z,4.97
2023-01-19T13:56:17.214Z,5.93
2023-01-19T13:59:01.319Z,5.40
2023-01-19T14:01:30.100Z,7.82
2023-01-19T14:03:58.300Z,4.65
2023-01-19T14:06:40.499Z,4.75
2023-01-19T14:09:17.734Z,5.20
2023-01-19T14:14:27.878Z,3.00
2023-01-19T14:16:55.629Z,4.72
2023-01-19T14:19:23.589Z,6.10
2023-01-19T14:22:03.903Z,7.97
2023-01-19T14:24:34.591Z,16.75
2023-01-19T14:27:22.823Z,25.10
2023-01-19T14:29:53.858Z,18.33
2023-01-19T14:32:24.563Z,26.63
2023-01-19T14:35:05.198Z,14.60
2023-01-19T14:37:35.577Z,18.98
2023-01-19T14:40:15.390Z,22.38
2023-01-19T14:42:53.701Z,15.25
2023-01-19T14:45:31.030Z,63.40
2023-01-19T14:50:38.057Z,43.88
2023-01-19T14:53:18.282Z,28.45
2023-01-19T14:55:52.908Z,19.10
2023-01-19T14:58:23.003Z,14.52
2023-01-19T15:00:56.189Z,12.43
2023-01-19T15:03:34.949Z,8.30
2023-01-19T15:06:19.679Z,5.22
2023-01-19T15:08:50.326Z,3.47
2023-01-19T15:11:25.009Z,7.22
2023-01-19T15:13:53.595Z,5.25
2023-01-19T15:16:23.544Z,5.10
2023-01-19T15:18:54.200Z,7.53
2023-01-19T15:21:30.701Z,7.43
2023-01-19T15:23:58.770Z,13.07
2023-01-19T15:26:27.971Z,13.52
2023-01-19T15:28:58.001Z,9.20
2023-01-19T15:31:26.817Z,9.55
2023-01-19T15:33:54.708Z,9.90
2023-01-19T15:36:25.727Z,6.15
2023-01-19T15:38:54.082Z,8.15
2023-01-19T15:41:27.604Z,8.05
2023-01-19T15:43:55.706Z,5.35
2023-01-19T15:46:30.378Z,7.25
2023-01-19T15:48:59.380Z,10.95
2023-01-19T15:51:28.192Z,8.38
2023-01-19T15:53:56.242Z,9.05
2023-01-19T15:56:26.370Z,12.93
2023-01-19T15:58:54.825Z,11.85
2023-01-19T16:01:24.914Z,11.20
2023-01-19T16:03:53.206Z,8.43
2023-01-19T16:06:20.910Z,11.25
2023-01-19T16:08:48.630Z,11.65
2023-01-19T16:11:18.541Z,10.02
2023-01-19T16:13:48.341Z,10.48
2023-01-19T16:16:22.099Z,6.05
2023-01-19T16:18:50.566Z,13.02
2023-01-19T16:21:18.350Z,7.20
2023-01-19T16:23:46.163Z,10.05
2023-01-19T16:26:25.044Z,7.43
2023-01-19T16:28:53.250Z,8.40
2023-01-19T16:31:21.000Z,8.15
2023-01-19T16:33:49.161Z,7.78
2023-01-19T16:36:22.755Z,5.57
2023-01-19T16:38:50.939Z,5.40
2023-01-19T16:41:19.047Z,8.77
2023-01-19T16:43:52.109Z,12.80
2023-01-19T16:46:36.278Z,11.35
2023-01-19T16:49:07.194Z,7.65
2023-01-19T16:51:34.949Z,7.47
2023-01-19T16:54:05.407Z,7.25
2023-01-19T16:56:33.451Z,5.00
2023-01-19T16:59:02.163Z,7.53
2023-01-19T17:01:31.611Z,5.03
2023-01-19T17:04:01.232Z,4.10
2023-01-19T17:06:30.382Z,4.10
2023-01-19T17:08:58.802Z,3.60
2023-01-19T17:11:30.748Z,7.68
2023-01-19T17:14:08.156Z,4.68
2023-01-19T17:16:36.759Z,6.18
2023-01-19T17:19:06.437Z,8.15
2023-01-19T17:21:35.289Z,4.85
2023-01-19T17:24:03.242Z,4.47
2023-01-19T17:26:32.224Z,6.18
2023-01-19T17:29:05.781Z,4.18
2023-01-19T17:31:34.884Z,4.15
2023-01-19T17:34:03.495Z,4.95
2023-01-19T17:36:32.573Z,7.32
2023-01-19T17:39:05.354Z,5.30
2023-01-19T17:41:35.938Z,5.03
2023-01-19T17:44:06.538Z,3.40
2023-01-19T17:46:38.139Z,5.60
2023-01-19T17:49:07.722Z,5.75
2023-01-19T17:51:37.531Z,5.45
2023-01-19T17:54:07.456Z,4.05
2023-01-19T17:56:37.725Z,3.35
2023-01-19T17:59:08.103Z,3.90
2023-01-19T18:01:40.743Z,4.70
2023-01-19T18:04:09.452Z,6.70
2023-01-19T18:06:38.248Z,5.88
2023-01-19T18:09:07.555Z,4.78
2023-01-19T18:11:36.016Z,6.32
2023-01-19T18:14:04.201Z,5.72
2023-01-19T18:16:32.693Z,6.00
2023-01-19T18:19:00.464Z,5.47
2023-01-19T18:21:30.548Z,5.90
2023-01-19T18:24:01.543Z,8.40
2023-01-19T18:26:31.244Z,13.20
2023-01-19T18:29:00.013Z,74.30
2023-01-19T18:31:28.442Z,73.65
2023-01-19T18:34:03.709Z,47.47
2023-01-19T18:36:32.771Z,25.90
2023-01-19T18:39:01.438Z,20.08
2023-01-19T18:41:29.983Z,15.18
2023-01-19T18:43:59.072Z,9.50
2023-01-19T18:46:27.815Z,8.23
2023-01-19T18:48:55.775Z,9.05
2023-01-19T18:51:23.979Z,5.35
2023-01-19T18:53:52.008Z,9.10
2023-01-19T18:56:20.032Z,6.30
2023-01-19T18:58:47.855Z,7.47
2023-01-19T19:01:26.448Z,6.30
2023-01-19T19:03:55.583Z,7.65
2023-01-19T19:06:26.994Z,5.10
2023-01-19T19:08:57.214Z,8.07
2023-01-19T19:11:25.988Z,7.75
2023-01-19T19:13:56.713Z,10.80
2023-01-19T19:16:25.030Z,10.68
2023-01-19T19:18:56.276Z,12.13
2023-01-19T19:21:25.653Z,48.17
2023-01-19T19:23:55.281Z,50.38
2023-01-19T19:26:24.391Z,56.15
2023-01-19T19:28:53.267Z,43.10
2023-01-19T19:31:22.993Z,32.88
2023-01-19T19:33:51.587Z,27.05
2023-01-19T19:36:21.179Z,20.92
2023-01-19T19:38:49.856Z,17.63
2023-01-19T19:41:23.436Z,18.27
2023-01-19T19:43:51.339Z,17.13
2023-01-19T19:46:21.235Z,14.25
2023-01-19T19:48:49.722Z,9.20
2023-01-19T19:51:23.086Z,8.43
2023-01-19T19:53:52.925Z,6.50
2023-01-19T19:56:23.157Z,7.70
2023-01-19T19:58:54.092Z,6.68
2023-01-19T20:01:27.216Z,5.50
2023-01-19T20:03:57.073Z,6.32
2023-01-19T20:06:28.775Z,5.00
2023-01-19T20:08:56.949Z,6.65
2023-01-19T20:11:27.631Z,3.83
2023-01-19T20:13:55.727Z,4.65
2023-01-19T20:16:24.179Z,5.75
2023-01-19T20:18:54.426Z,8.85
2023-01-19T20:21:33.401Z,6.80
2023-01-19T20:24:03.532Z,8.13
2023-01-19T20:26:34.257Z,7.47
2023-01-19T20:29:06.417Z,6.85
2023-01-19T20:31:40.741Z,10.60
2023-01-19T20:34:10.305Z,8.23
2023-01-19T20:36:38.349Z,9.57
2023-01-19T20:39:11.292Z,7.22
2023-01-19T20:41:43.825Z,5.38
2023-01-19T20:44:14.097Z,12.18
2023-01-19T20:46:42.363Z,5.50
2023-01-19T20:49:10.399Z,5.40
2023-01-19T20:51:43.236Z,5.60
2023-01-19T20:54:15.940Z,7.00
2023-01-19T20:56:43.890Z,7.72
2023-01-19T20:59:12.406Z,4.53
2023-01-19T21:01:41.120Z,5.88
2023-01-19T21:04:10.083Z,3.47
2023-01-19T21:06:38.982Z,3.55
2023-01-19T21:09:08.619Z,3.05
2023-01-19T21:11:38.394Z,4.30
2023-01-19T21:14:07.352Z,3.30
2023-01-19T21:16:36.242Z,4.43
2023-01-19T21:19:04.981Z,3.78
2023-01-19T21:21:34.248Z,3.20
2023-01-19T21:24:02.900Z,4.95
2023-01-19T21:26:31.731Z,2.90
2023-01-19T21:29:01.236Z,2.25
2023-01-19T21:31:29.552Z,2.35
2023-01-19T21:33:59.017Z,2.75
2023-01-19T21:36:27.141Z,1.85
2023-01-19T21:39:01.080Z,2.05
2023-01-19T21:41:30.435Z,3.40
2023-01-19T21:44:01.055Z,2.45
2023-01-19T21:46:29.817Z,2.95
2023-01-19T21:48:58.925Z,2.13
2023-01-19T21:51:27.922Z,1.95
2023-01-19T21:54:00.358Z,3.95
2023-01-19T21:56:29.829Z,3.78
2023-01-19T21:58:59.536Z,2.63
2023-01-19T22:01:27.709Z,5.68
2023-01-19T22:03:57.187Z,2.22
2023-01-19T22:06:27.968Z,1.98
2023-01-19T22:08:58.566Z,2.70
2023-01-19T22:11:27.524Z,1.65
2023-01-19T22:13:55.345Z,3.90
2023-01-19T22:16:23.764Z,2.42
2023-01-19T22:18:54.385Z,3.38
2023-01-19T22:21:26.251Z,2.63
2023-01-19T22:23:56.609Z,1.90
2023-01-19T22:26:25.614Z,3.50
2023-01-19T22:28:58.488Z,1.65
2023-01-19T22:31:28.753Z,1.38
2023-01-19T22:33:57.200Z,2.10
2023-01-19T22:36:28.623Z,2.05
2023-01-19T22:38:58.562Z,2.15
2023-01-19T22:41:35.715Z,1.67
2023-01-19T22:44:07.431Z,1.40
2023-01-19T22:46:37.114Z,2.17
2023-01-19T22:49:07.965Z,0.80
2023-01-19T22:51:36.577Z,2.08
2023-01-19T22:54:04.936Z,1.55
2023-01-19T22:56:35.540Z,1.13
2023-01-19T22:59:04.584Z,2.70
2023-01-19T23:01:36.911Z,1.10
2023-01-19T23:04:06.349Z,1.45
2023-01-19T23:06:35.844Z,1.05
2023-01-19T23:09:11.720Z,1.15
2023-01-19T23:11:42.289Z,3.90
2023-01-19T23:14:15.635Z,1.95
2023-01-19T23:16:43.680Z,1.60
2023-01-19T23:19:14.136Z,0.60
2023-01-19T23:21:42.091Z,1.33
2023-01-19T23:24:10.329Z,1.35
2023-01-19T23:26:38.716Z,1.67
2023-01-19T23:29:11.393Z,0.82
2023-01-19T23:31:42.890Z,1.23
2023-01-19T23:34:12.415Z,2.17
2023-01-19T23:36:42.376Z,1.00
2023-01-19T23:39:13.421Z,1.63
2023-01-19T23:41:41.320Z,2.55
2023-01-19T23:44:09.737Z,1.60
2023-01-19T23:46:52.924Z,1.40
2023-01-19T23:49:20.797Z,2.45
2023-01-19T23:51:48.624Z,5.45
2023-01-19T23:54:16.953Z,1.60
2023-01-19T23:56:44.866Z,2.42
2023-01-19T23:59:15.959Z,2.78
